createdAt,value
2022-12-08T00:00:09.855Z,89.81
2022-12-08T00:03:01.158Z,89.75
2022-12-08T00:05:49.054Z,89.63
2022-12-08T00:08:35.791Z,89.69
2022-12-08T00:11:04.418Z,89.61
2022-12-08T00:13:33.090Z,89.68
2022-12-08T00:16:01.789Z,89.68
2022-12-08T00:18:30.439Z,89.56
2022-12-08T00:20:59.880Z,89.47
2022-12-08T00:23:28.451Z,89.39
2022-12-08T00:26:01.053Z,89.40
2022-12-08T00:28:29.622Z,88.99
2022-12-08T00:30:58.355Z,88.84
2022-12-08T00:33:28.135Z,88.72
2022-12-08T00:35:56.709Z,88.94
2022-12-08T00:38:25.546Z,89.15
2022-12-08T00:40:54.278Z,89.42
2022-12-08T00:43:22.843Z,89.28
2022-12-08T00:45:51.568Z,89.20
2022-12-08T00:48:20.189Z,89.20
2022-12-08T00:50:48.801Z,89.33
2022-12-08T00:53:17.325Z,89.18
2022-12-08T00:55:45.841Z,89.33
2022-12-08T00:58:14.472Z,89.47
2022-12-08T01:00:43.758Z,89.30
2022-12-08T01:03:13.171Z,89.24
2022-12-08T01:05:41.729Z,89.08
2022-12-08T01:08:10.355Z,89.13
2022-12-08T01:10:40.115Z,89.21
2022-12-08T01:13:08.686Z,88.99
2022-12-08T01:15:38.217Z,88.78
2022-12-08T01:18:06.902Z,88.78
2022-12-08T01:20:35.521Z,88.85
2022-12-08T01:23:04.142Z,88.88
2022-12-08T01:25:35.167Z,88.65
2022-12-08T01:28:03.993Z,88.77
2022-12-08T01:30:32.694Z,88.72
2022-12-08T01:33:02.184Z,88.84
2022-12-08T01:35:31.391Z,88.74
2022-12-08T01:38:00.082Z,88.90
2022-12-08T01:40:28.642Z,88.89
2022-12-08T01:42:57.397Z,88.95
2022-12-08T01:45:28.347Z,89.15
2022-12-08T01:48:00.256Z,89.21
2022-12-08T01:50:30.328Z,89.03
2022-12-08T01:53:01.957Z,89.15
2022-12-08T01:55:36.732Z,89.14
2022-12-08T01:58:12.976Z,89.11
2022-12-08T02:00:41.803Z,89.09
2022-12-08T02:03:14.265Z,89.05
2022-12-08T02:05:43.684Z,89.12
2022-12-08T02:08:14.786Z,88.85
2022-12-08T02:10:44.123Z,88.22
2022-12-08T02:13:16.254Z,88.39
2022-12-08T02:15:48.912Z,88.45
2022-12-08T02:18:24.260Z,88.47
2022-12-08T02:20:59.018Z,88.60
2022-12-08T02:23:32.664Z,88.01
2022-12-08T02:26:18.149Z,87.81
2022-12-08T02:28:58.607Z,87.59
2022-12-08T02:31:34.695Z,87.76
2022-12-08T02:34:12.544Z,87.81
2022-12-08T02:36:45.298Z,88.11
2022-12-08T02:39:21.211Z,88.38
2022-12-08T02:41:51.994Z,88.70
2022-12-08T02:44:24.015Z,88.37
2022-12-08T02:46:53.323Z,88.40
2022-12-08T02:49:20.947Z,88.43
2022-12-08T02:51:48.785Z,88.38
2022-12-08T02:54:16.877Z,88.65
2022-12-08T02:56:52.872Z,88.87
2022-12-08T02:59:25.664Z,88.75
2022-12-08T03:02:02.017Z,88.60
2022-12-08T03:04:35.372Z,88.60
2022-12-08T03:07:06.152Z,88.71
2022-12-08T03:09:36.125Z,89.00
2022-12-08T03:12:06.578Z,88.93
2022-12-08T03:14:34.591Z,89.03
2022-12-08T03:17:03.810Z,89.06
2022-12-08T03:19:34.292Z,89.05
2022-12-08T03:22:03.969Z,89.03
2022-12-08T03:24:33.113Z,88.90
2022-12-08T03:27:02.571Z,89.02
2022-12-08T03:29:30.392Z,88.99
2022-12-08T03:32:01.895Z,88.72
2022-12-08T03:34:30.249Z,88.90
2022-12-08T03:36:59.867Z,88.84
2022-12-08T03:39:27.529Z,88.91
2022-12-08T03:41:55.140Z,88.94
2022-12-08T03:44:22.738Z,88.92
2022-12-08T03:46:50.433Z,89.10
2022-12-08T03:49:18.084Z,89.07
2022-12-08T03:51:45.821Z,88.83
2022-12-08T03:54:13.638Z,88.77
2022-12-08T03:56:41.326Z,88.58
2022-12-08T03:59:10.196Z,88.30
2022-12-08T04:01:38.287Z,87.89
2022-12-08T04:04:06.091Z,87.68
2022-12-08T04:06:33.945Z,87.62
2022-12-08T04:09:01.636Z,87.94
2022-12-08T04:11:29.355Z,88.24
2022-12-08T04:13:57.124Z,88.06
2022-12-08T04:16:25.975Z,87.79
2022-12-08T04:18:53.890Z,87.69
2022-12-08T04:21:21.967Z,87.66
2022-12-08T04:23:49.714Z,87.71
2022-12-08T04:26:17.724Z,87.44
2022-12-08T04:28:45.513Z,87.45
2022-12-08T04:31:13.288Z,87.78
2022-12-08T04:33:41.001Z,87.69
2022-12-08T04:36:09.456Z,87.68
2022-12-08T04:38:37.536Z,87.57
2022-12-08T04:41:05.317Z,87.59
2022-12-08T04:43:33.060Z,87.80
2022-12-08T04:46:00.653Z,87.90
2022-12-08T04:48:28.374Z,87.86
2022-12-08T04:50:56.484Z,87.91
2022-12-08T04:53:26.028Z,87.89
2022-12-08T04:55:53.749Z,87.72
2022-12-08T04:58:21.531Z,87.41
2022-12-08T05:00:49.343Z,87.64
2022-12-08T05:03:17.491Z,87.84
2022-12-08T05:05:46.015Z,87.96
2022-12-08T05:08:13.800Z,88.24
2022-12-08T05:10:41.555Z,88.16
2022-12-08T05:13:09.276Z,87.99
2022-12-08T05:15:37.030Z,88.14
2022-12-08T05:18:05.761Z,87.89
2022-12-08T05:20:33.629Z,88.02
2022-12-08T05:23:01.465Z,88.19
2022-12-08T05:25:29.157Z,87.91
2022-12-08T05:28:17.551Z,87.64
2022-12-08T05:30:44.892Z,87.52
2022-12-08T05:33:12.717Z,87.39
2022-12-08T05:35:40.564Z,87.54
2022-12-08T05:38:08.243Z,87.55
2022-12-08T05:40:36.744Z,87.64
2022-12-08T05:43:04.439Z,87.75
2022-12-08T05:45:32.383Z,87.58
2022-12-08T05:48:00.183Z,87.65
2022-12-08T05:50:27.881Z,87.75
2022-12-08T05:52:56.105Z,87.77
2022-12-08T05:55:23.874Z,87.93
2022-12-08T05:57:51.533Z,87.92
2022-12-08T06:00:20.592Z,88.19
2022-12-08T06:02:48.582Z,88.23
2022-12-08T06:05:16.553Z,88.18
2022-12-08T06:07:44.506Z,88.37
2022-12-08T06:10:12.761Z,88.48
2022-12-08T06:12:40.574Z,88.67
2022-12-08T06:15:08.751Z,88.71
2022-12-08T06:17:37.783Z,88.75
2022-12-08T06:20:08.560Z,88.80
2022-12-08T06:22:36.739Z,88.77
2022-12-08T06:25:09.549Z,88.87
2022-12-08T06:27:38.020Z,89.01
2022-12-08T06:30:07.220Z,89.05
2022-12-08T06:32:35.773Z,89.08
2022-12-08T06:35:03.547Z,89.18
2022-12-08T06:37:31.226Z,89.16
2022-12-08T06:39:59.027Z,89.25
2022-12-08T06:42:46.179Z,89.32
2022-12-08T06:45:14.659Z,89.41
2022-12-08T06:47:42.501Z,89.31
2022-12-08T06:50:11.719Z,89.19
2022-12-08T06:52:51.777Z,89.14
2022-12-08T06:55:50.609Z,89.26
2022-12-08T06:58:11.997Z,89.38
2022-12-08T07:00:39.868Z,89.26
2022-12-08T07:03:08.041Z,89.36
2022-12-08T07:05:38.390Z,89.37
2022-12-08T07:08:07.433Z,89.18
2022-12-08T07:10:35.509Z,89.06
2022-12-08T07:13:03.200Z,88.83
2022-12-08T07:16:13.297Z,88.62
2022-12-08T07:18:45.440Z,88.67
2022-12-08T07:21:18.241Z,88.88
2022-12-08T07:23:57.424Z,88.79
2022-12-08T07:26:30.214Z,88.80
2022-12-08T07:29:02.848Z,88.82
2022-12-08T07:31:35.221Z,88.70
2022-12-08T07:34:07.455Z,88.83
2022-12-08T07:36:39.665Z,88.79
2022-12-08T07:39:10.709Z,88.81
2022-12-08T07:41:43.028Z,88.80
2022-12-08T07:44:13.632Z,88.71
2022-12-08T07:46:46.058Z,88.82
2022-12-08T07:49:18.343Z,88.82
2022-12-08T07:51:48.762Z,88.60
2022-12-08T07:54:21.025Z,88.60
2022-12-08T07:56:51.568Z,88.42
2022-12-08T07:59:23.766Z,88.38
2022-12-08T08:02:13.520Z,87.98
2022-12-08T08:04:50.718Z,87.90
2022-12-08T08:07:22.846Z,88.03
2022-12-08T08:09:55.169Z,87.83
2022-12-08T08:12:32.024Z,87.64
2022-12-08T08:15:07.470Z,87.53
2022-12-08T08:17:40.411Z,87.41
2022-12-08T08:20:14.571Z,87.48
2022-12-08T08:22:50.213Z,87.52
2022-12-08T08:25:23.625Z,87.30
2022-12-08T08:27:56.842Z,86.98
2022-12-08T08:30:33.225Z,86.76
2022-12-08T08:33:05.614Z,86.92
2022-12-08T08:35:38.699Z,86.78
2022-12-08T08:38:10.748Z,86.84
2022-12-08T08:40:43.014Z,86.65
2022-12-08T08:43:34.294Z,86.83
2022-12-08T08:46:11.226Z,86.87
2022-12-08T08:48:43.451Z,86.86
2022-12-08T08:51:16.723Z,86.91
2022-12-08T08:53:48.899Z,86.65
2022-12-08T08:56:21.858Z,86.23
2022-12-08T08:58:55.140Z,86.12
2022-12-08T09:01:28.994Z,85.93
2022-12-08T09:04:01.461Z,85.59
2022-12-08T09:06:33.768Z,85.60
2022-12-08T09:09:04.279Z,85.71
2022-12-08T09:11:36.390Z,85.47
2022-12-08T09:14:07.223Z,85.00
2022-12-08T09:16:42.339Z,84.53
2022-12-08T09:19:15.151Z,84.65
2022-12-08T09:21:47.491Z,84.93
2022-12-08T09:24:18.004Z,84.78
2022-12-08T09:26:50.616Z,84.07
2022-12-08T09:29:22.788Z,83.71
2022-12-08T09:31:56.486Z,84.16
2022-12-08T09:34:28.725Z,84.28
2022-12-08T09:36:59.352Z,83.89
2022-12-08T09:39:31.638Z,83.84
2022-12-08T09:42:03.071Z,83.46
2022-12-08T09:44:57.287Z,83.01
2022-12-08T09:47:36.082Z,83.17
2022-12-08T09:50:13.534Z,83.14
2022-12-08T09:52:48.990Z,82.74
2022-12-08T09:55:45.327Z,82.71
2022-12-08T09:58:26.909Z,82.89
2022-12-08T10:00:59.301Z,82.47
2022-12-08T10:03:32.892Z,82.43
2022-12-08T10:06:09.273Z,82.59
2022-12-08T10:08:49.246Z,82.84
2022-12-08T10:11:30.519Z,82.22
2022-12-08T10:14:15.750Z,81.29
2022-12-08T10:16:53.426Z,81.06
2022-12-08T10:19:28.689Z,81.11
2022-12-08T10:22:01.074Z,80.44
2022-12-08T10:24:40.837Z,79.66
2022-12-08T10:27:15.000Z,79.58
2022-12-08T10:29:47.241Z,79.43
2022-12-08T10:32:23.597Z,80.01
2022-12-08T10:35:08.607Z,79.72
2022-12-08T10:37:41.201Z,79.69
2022-12-08T10:40:18.044Z,79.60
2022-12-08T10:42:53.435Z,78.80
2022-12-08T10:45:29.490Z,79.23
2022-12-08T10:48:04.874Z,79.33
2022-12-08T10:50:43.043Z,79.32
2022-12-08T10:53:20.928Z,79.11
2022-12-08T10:56:06.293Z,79.17
2022-12-08T10:58:40.936Z,79.13
2022-12-08T11:01:18.102Z,79.16
2022-12-08T11:03:53.058Z,78.74
2022-12-08T11:06:35.461Z,78.31
2022-12-08T11:09:07.815Z,78.73
2022-12-08T11:11:49.381Z,78.31
2022-12-08T11:14:24.871Z,78.17
2022-12-08T11:17:04.654Z,78.36
2022-12-08T11:19:40.450Z,78.52
2022-12-08T11:22:25.995Z,78.67
2022-12-08T11:25:04.103Z,78.56
2022-12-08T11:27:38.216Z,78.71
2022-12-08T11:30:18.154Z,78.62
2022-12-08T11:32:55.889Z,78.80
2022-12-08T11:35:31.488Z,78.92
2022-12-08T11:38:21.008Z,78.69
2022-12-08T11:40:57.027Z,78.72
2022-12-08T11:43:37.645Z,78.60
2022-12-08T11:46:17.247Z,78.74
2022-12-08T11:48:54.529Z,79.05
2022-12-08T11:51:33.366Z,79.19
2022-12-08T11:54:19.062Z,79.28
2022-12-08T11:56:54.130Z,79.31
2022-12-08T11:59:30.704Z,79.32
2022-12-08T12:02:05.469Z,79.31
2022-12-08T12:04:45.755Z,79.24
2022-12-08T12:07:41.715Z,79.48
2022-12-08T12:10:28.219Z,79.14
2022-12-08T12:13:13.762Z,79.35
2022-12-08T12:16:19.911Z,78.85
2022-12-08T12:18:56.615Z,78.39
2022-12-08T12:21:34.883Z,77.92
2022-12-08T12:24:11.569Z,78.15
2022-12-08T12:26:57.090Z,77.74
2022-12-08T12:29:32.113Z,77.64
2022-12-08T12:32:07.421Z,77.80
2022-12-08T12:34:49.932Z,77.67
2022-12-08T12:37:25.749Z,77.73
2022-12-08T12:40:05.305Z,78.11
2022-12-08T12:42:50.723Z,77.98
2022-12-08T12:45:33.322Z,78.05
2022-12-08T12:48:25.120Z,77.92
2022-12-08T12:50:57.379Z,77.98
2022-12-08T12:53:45.144Z,78.10
2022-12-08T12:56:54.075Z,78.05
2022-12-08T12:59:43.668Z,77.82
2022-12-08T13:02:25.809Z,77.94
2022-12-08T13:05:13.149Z,78.11
2022-12-08T13:07:50.948Z,78.18
2022-12-08T13:10:26.495Z,78.25
2022-12-08T13:13:09.118Z,78.28
2022-12-08T13:15:48.832Z,78.58
2022-12-08T13:18:26.170Z,78.73
2022-12-08T13:21:05.761Z,78.57
2022-12-08T13:23:49.542Z,78.77
2022-12-08T13:26:24.073Z,78.88
2022-12-08T13:29:18.025Z,78.92
2022-12-08T13:31:52.627Z,78.78
2022-12-08T13:34:31.340Z,78.73
2022-12-08T13:37:19.983Z,78.38
2022-12-08T13:39:56.419Z,78.59
2022-12-08T13:42:41.965Z,78.62
2022-12-08T13:48:35.335Z,78.91
2022-12-08T13:57:28.865Z,79.30
2022-12-08T14:00:05.940Z,79.37
2022-12-08T14:02:48.104Z,79.60
2022-12-08T14:05:47.486Z,79.71
2022-12-08T14:08:57.467Z,79.87
2022-12-08T14:11:37.007Z,80.17
2022-12-08T14:14:27.224Z,80.26
2022-12-08T14:17:07.170Z,80.39
2022-12-08T14:19:39.829Z,80.57
2022-12-08T14:22:16.593Z,80.64
2022-12-08T14:24:51.622Z,80.81
2022-12-08T14:27:25.390Z,80.92
2022-12-08T14:30:01.321Z,81.12
2022-12-08T14:32:35.597Z,81.28
2022-12-08T14:35:23.531Z,81.38
2022-12-08T14:37:58.711Z,81.49
2022-12-08T14:40:34.942Z,81.58
2022-12-08T14:43:18.775Z,81.69
2022-12-08T14:45:53.647Z,81.73
2022-12-08T14:48:29.084Z,81.80
2022-12-08T14:51:08.867Z,81.92
2022-12-08T14:53:43.588Z,81.96
2022-12-08T14:56:23.807Z,82.15
2022-12-08T14:59:07.849Z,82.18
2022-12-08T15:01:41.188Z,82.38
2022-12-08T15:04:20.272Z,82.43
2022-12-08T15:07:01.373Z,82.48
2022-12-08T15:09:37.447Z,82.67
2022-12-08T15:12:26.624Z,82.72
2022-12-08T15:15:03.427Z,82.83
2022-12-08T15:17:43.661Z,83.06
2022-12-08T15:20:35.621Z,83.19
2022-12-08T15:23:12.995Z,83.40
2022-12-08T15:25:45.823Z,83.57
2022-12-08T15:28:22.054Z,83.68
2022-12-08T15:30:57.146Z,83.84
2022-12-08T15:33:29.956Z,84.04
2022-12-08T15:36:02.126Z,84.17
2022-12-08T15:38:35.213Z,84.31
2022-12-08T15:41:13.038Z,84.35
2022-12-08T15:43:47.016Z,84.31
2022-12-08T15:46:18.920Z,84.41
2022-12-08T15:48:57.796Z,84.51
2022-12-08T15:51:37.048Z,84.55
2022-12-08T15:54:09.763Z,84.56
2022-12-08T15:57:10.594Z,84.72
2022-12-08T15:59:39.029Z,84.75
2022-12-08T16:02:16.641Z,84.74
2022-12-08T16:07:44.623Z,84.92
2022-12-08T16:10:21.068Z,84.94
2022-12-08T16:13:55.529Z,85.11
2022-12-08T16:16:04.036Z,85.13
2022-12-08T16:18:40.109Z,85.24
2022-12-08T16:21:31.528Z,85.34
2022-12-08T16:24:09.393Z,85.29
2022-12-08T16:29:34.459Z,85.35
2022-12-08T16:32:07.015Z,85.55
2022-12-08T16:34:39.132Z,85.63
2022-12-08T16:37:15.238Z,85.73
2022-12-08T16:39:50.197Z,85.74
2022-12-08T16:42:43.740Z,85.79
2022-12-08T16:45:19.385Z,85.88
2022-12-08T16:47:53.438Z,86.01
2022-12-08T16:50:27.792Z,86.29
2022-12-08T16:53:01.942Z,86.40
2022-12-08T16:55:34.674Z,86.54
2022-12-08T16:58:07.238Z,86.64
2022-12-08T17:00:39.463Z,86.71
2022-12-08T17:03:10.064Z,86.78
2022-12-08T17:05:45.021Z,86.81
2022-12-08T17:08:17.561Z,86.80
2022-12-08T17:11:07.436Z,86.82
2022-12-08T17:13:41.773Z,86.87
2022-12-08T17:16:17.781Z,86.86
2022-12-08T17:18:50.557Z,86.81
2022-12-08T17:21:23.018Z,86.86
2022-12-08T17:23:55.089Z,86.93
2022-12-08T17:26:27.261Z,86.92
2022-12-08T17:29:01.418Z,86.98
2022-12-08T17:31:34.835Z,87.05
2022-12-08T17:34:10.272Z,87.17
2022-12-08T17:36:42.622Z,87.18
2022-12-08T17:39:18.731Z,87.19
2022-12-08T17:41:51.445Z,87.23
2022-12-08T17:44:21.949Z,87.42
2022-12-08T17:46:54.136Z,87.54
2022-12-08T17:49:29.690Z,87.64
2022-12-08T17:52:03.777Z,87.79
2022-12-08T17:54:36.614Z,87.79
2022-12-08T17:57:09.062Z,87.73
2022-12-08T17:59:41.839Z,87.87
2022-12-08T18:02:14.203Z,87.91
2022-12-08T18:04:46.612Z,87.93
2022-12-08T18:07:18.801Z,88.00
2022-12-08T18:09:49.277Z,87.94
2022-12-08T18:12:23.819Z,88.01
2022-12-08T18:14:56.547Z,88.05
2022-12-08T18:17:27.198Z,88.10
2022-12-08T18:19:59.317Z,88.19
2022-12-08T18:22:31.447Z,88.24
2022-12-08T18:25:01.893Z,88.37
2022-12-08T18:27:37.382Z,88.41
2022-12-08T18:30:18.291Z,88.36
2022-12-08T18:32:54.286Z,88.43
2022-12-08T18:35:30.016Z,88.33
2022-12-08T18:38:02.658Z,88.29
2022-12-08T18:40:35.110Z,88.40
2022-12-08T18:43:07.787Z,88.36
2022-12-08T18:45:40.105Z,88.30
2022-12-08T18:48:14.735Z,88.35
2022-12-08T18:50:46.862Z,88.34
2022-12-08T18:53:17.652Z,88.41
2022-12-08T18:55:51.178Z,88.31
2022-12-08T18:58:23.439Z,88.20
2022-12-08T19:00:55.852Z,87.98
2022-12-08T19:03:28.175Z,87.94
2022-12-08T19:06:06.576Z,87.78
2022-12-08T19:08:38.968Z,87.74
2022-12-08T19:11:35.111Z,87.89
2022-12-08T19:14:07.872Z,88.02
2022-12-08T19:16:40.320Z,88.12
2022-12-08T19:19:13.533Z,88.06
2022-12-08T19:21:46.517Z,88.10
2022-12-08T19:24:19.386Z,88.07
2022-12-08T19:26:52.005Z,88.04
2022-12-08T19:29:24.032Z,88.02
2022-12-08T19:31:56.871Z,87.92
2022-12-08T19:34:29.359Z,88.01
2022-12-08T19:37:01.750Z,87.95
2022-12-08T19:39:51.594Z,87.83
2022-12-08T19:42:42.444Z,87.82
2022-12-08T19:45:18.186Z,87.91
2022-12-08T19:47:51.125Z,87.80
2022-12-08T19:50:39.435Z,87.71
2022-12-08T19:53:14.552Z,87.68
2022-12-08T19:55:49.082Z,87.62
2022-12-08T19:58:21.195Z,87.55
2022-12-08T20:00:51.797Z,87.48
2022-12-08T20:03:24.448Z,87.49
2022-12-08T20:05:56.658Z,87.50
2022-12-08T20:08:29.064Z,87.51
2022-12-08T20:13:48.772Z,87.17
2022-12-08T20:16:21.373Z,87.29
2022-12-08T20:18:54.804Z,87.20
2022-12-08T20:21:27.206Z,87.17
2022-12-08T20:23:59.913Z,87.29
2022-12-08T20:26:32.239Z,87.27
2022-12-08T20:29:05.291Z,87.45
2022-12-08T20:31:38.624Z,87.52
2022-12-08T20:34:16.366Z,87.69
2022-12-08T20:36:50.765Z,87.68
2022-12-08T20:39:27.491Z,87.79
2022-12-08T20:42:00.363Z,87.92
2022-12-08T20:44:33.334Z,87.97
2022-12-08T20:47:05.686Z,88.02
2022-12-08T20:49:38.666Z,87.95
2022-12-08T20:52:11.586Z,88.17
2022-12-08T20:54:43.930Z,88.16
2022-12-08T20:57:16.318Z,88.39
2022-12-08T20:59:48.620Z,88.58
2022-12-08T21:02:19.342Z,88.69
2022-12-08T21:04:51.971Z,89.01
2022-12-08T21:07:24.419Z,89.09
2022-12-08T21:09:56.677Z,89.09
2022-12-08T21:12:27.518Z,89.05
2022-12-08T21:14:59.885Z,89.13
2022-12-08T21:17:32.296Z,89.11
2022-12-08T21:20:05.481Z,89.16
2022-12-08T21:22:39.980Z,89.20
2022-12-08T21:25:12.906Z,89.07
2022-12-08T21:27:45.409Z,89.09
2022-12-08T21:30:19.070Z,89.15
2022-12-08T21:32:51.360Z,89.18
2022-12-08T21:35:23.735Z,89.02
2022-12-08T21:37:56.190Z,89.05
2022-12-08T21:40:27.108Z,89.17
2022-12-08T21:42:59.352Z,89.24
2022-12-08T21:45:29.882Z,89.42
2022-12-08T21:48:10.306Z,89.36
2022-12-08T21:50:43.646Z,89.45
2022-12-08T21:53:15.962Z,89.45
2022-12-08T21:55:48.384Z,89.59
2022-12-08T21:58:20.692Z,89.57
2022-12-08T22:00:52.916Z,89.63
2022-12-08T22:03:25.384Z,89.64
2022-12-08T22:05:58.254Z,89.67
2022-12-08T22:08:30.846Z,89.60
2022-12-08T22:11:03.163Z,89.60
2022-12-08T22:13:36.604Z,89.68
2022-12-08T22:16:11.514Z,89.63
2022-12-08T22:18:44.286Z,89.75
2022-12-08T22:21:18.784Z,89.67
2022-12-08T22:23:50.965Z,89.70
2022-12-08T22:26:21.610Z,89.67
2022-12-08T22:28:54.646Z,89.73
2022-12-08T22:31:27.823Z,89.78
2022-12-08T22:34:01.651Z,89.81
2022-12-08T22:36:34.443Z,89.85
2022-12-08T22:39:06.931Z,89.86
2022-12-08T22:41:39.124Z,89.81
2022-12-08T22:44:10.332Z,89.80
2022-12-08T22:46:42.790Z,89.95
2022-12-08T22:49:15.301Z,89.86
2022-12-08T22:51:47.905Z,89.89
2022-12-08T22:54:19.050Z,90.02
2022-12-08T22:56:51.502Z,89.88
2022-12-08T22:59:23.917Z,89.77
2022-12-08T23:01:56.062Z,89.74
2022-12-08T23:04:26.714Z,89.66
2022-12-08T23:06:58.943Z,89.52
2022-12-08T23:09:29.550Z,89.39
2022-12-08T23:12:01.760Z,89.38
2022-12-08T23:14:32.415Z,89.30
2022-12-08T23:17:04.563Z,89.36
2022-12-08T23:19:36.302Z,89.46
2022-12-08T23:22:08.485Z,89.57
2022-12-08T23:24:40.872Z,89.67
2022-12-08T23:27:12.931Z,89.86
2022-12-08T23:29:45.317Z,89.94
2022-12-08T23:32:17.564Z,90.00
2022-12-08T23:34:50.289Z,90.04
2022-12-08T23:37:22.778Z,90.07
2022-12-08T23:39:55.242Z,89.88
2022-12-08T23:42:27.501Z,89.93
2022-12-08T23:44:59.988Z,90.08
2022-12-08T23:47:32.444Z,90.20
2022-12-08T23:50:05.533Z,90.25
2022-12-08T23:52:39.817Z,90.23
2022-12-08T23:55:13.110Z,90.27
2022-12-08T23:57:45.477Z,90.23
